Date,TemperatureHighF,TemperatureAvgF,TemperatureLowF,DewpointHighF,DewpointAvgF,DewpointLowF,HumidityHigh,HumidityAvg,HumidityLow,PressureMaxIn,PressureMinIn,WindSpeedMaxMPH,WindSpeedAvgMPH,GustSpeedMaxMPH,PrecipitationSumIn
2013-3-1,42,38,35,30,28,25,70,62,54,30.01,29.95,12,0,12,0.00
2013-3-2,39,36,33,30,28,25,79,70,57,30.04,29.95,13,0,17,0.00
2013-3-3,42,34,30,26,22,20,72,57,39,30.11,30.02,20,1,20,0.00
2013-3-4,58,43,26,32,25,19,76,46,22,30.21,30.00,10,0,10,0.00
2013-3-5,65,54,39,57,44,29,87,66,44,30.06,29.66,28,3,30,0.23
2013-3-6,43,37,32,31,26,20,81,61,53,30.20,29.88,24,1,24,0.00
2013-3-7,57,42,31,33,30,26,81,59,33,30.28,30.17,11,0,11,0.00
2013-3-8,63,46,30,32,28,22,83,48,23,30.32,30.21,12,0,13,0.00
2013-3-9,63,51,39,35,30,24,57,40,28,30.32,30.18,15,1,15,0.00
2013-3-10,71,60,50,44,37,32,55,39,22,30.19,30.03,15,1,18,0.00
2013-3-11,67,57,49,57,52,44,91,79,55,30.04,29.77,11,0,11,1.31
2013-3-12,58,48,39,48,37,32,91,63,36,30.09,29.82,16,1,17,0.02
2013-3-13,56,46,36,34,29,22,80,49,27,30.25,30.09,21,1,21,0.00
2013-3-14,55,41,29,26,20,16,64,40,17,30.38,30.22,14,0,16,0.00
2013-3-15,75,55,34,44,36,26,81,48,27,30.24,29.97,19,2,20,0.00
2013-3-16,78,64,51,44,42,37,65,41,19,29.99,29.84,21,3,22,0.00
2013-3-17,71,62,53,55,50,43,77,59,42,29.98,29.87,14,2,14,0.00
2013-3-18,61,55,46,56,52,45,91,84,73,29.96,29.78,20,2,20,0.32
2013-3-19,63,53,44,46,36,26,92,55,24,30.06,29.86,12,1,13,0.01
2013-3-20,58,49,41,28,23,18,45,31,18,30.12,29.89,19,1,19,0.00
2013-3-21,49,40,30,30,19,8,70,40,18,29.99,29.90,18,1,18,0.00
2013-3-22,51,44,37,35,27,17,57,47,36,30.07,29.96,11,0,12,0.00
2013-3-23,55,48,43,50,44,35,91,83,56,30.02,29.74,17,2,18,1.01
2013-3-24,50,48,43,49,46,33,91,86,60,29.78,29.50,21,3,28,1.13
2013-3-25,44,38,35,34,26,23,65,55,42,30.08,29.69,21,2,22,0.00
2013-3-26,42,36,32,28,25,22,72,59,47,30.30,30.05,18,1,18,0.00
2013-3-27,55,41,29,30,26,23,80,53,29,30.36,30.24,16,0,16,0.00
2013-3-28,61,47,32,33,29,22,77,48,21,30.34,30.23,16,0,16,0.00
2013-3-29,69,52,35,39,34,28,82,50,24,30.33,30.14,11,0,13,0.00
2013-3-30,56,56,56,55,55,54,92,92,91,30.02,29.99,6,1,6,0.33
2013-3-31,70,62,56,59,55,53,94,79,58,29.99,29.83,18,2,18,0.16